createdAt,value
2018-06-13T00:00:17.463Z,85.54
2018-06-13T00:02:46.675Z,86.04
2018-06-13T00:05:16.806Z,85.04
2018-06-13T00:07:46.372Z,85.31
2018-06-13T00:10:15.556Z,85.08
2018-06-13T00:12:45.156Z,85.44
2018-06-13T00:15:14.331Z,84.67
2018-06-13T00:17:43.915Z,84.58
2018-06-13T00:20:13.119Z,85.33
2018-06-13T00:22:42.762Z,85.00
2018-06-13T00:25:12.260Z,84.95
2018-06-13T00:27:41.474Z,85.19
2018-06-13T00:30:10.667Z,85.07
2018-06-13T00:32:39.889Z,85.30
2018-06-13T00:35:09.103Z,85.46
2018-06-13T00:37:38.358Z,85.41
2018-06-13T00:40:22.171Z,85.18
2018-06-13T00:43:02.912Z,85.70
2018-06-13T00:45:33.098Z,85.18
2018-06-13T00:48:02.298Z,85.43
2018-06-13T00:50:31.484Z,85.75
2018-06-13T00:53:00.686Z,85.92
2018-06-13T00:55:29.987Z,86.15
2018-06-13T00:57:59.240Z,86.51
2018-06-13T01:00:28.442Z,86.58
2018-06-13T01:02:57.982Z,86.83
2018-06-13T01:05:27.610Z,86.62
2018-06-13T01:07:56.799Z,86.00
2018-06-13T01:10:26.347Z,85.46
2018-06-13T01:12:55.610Z,85.77
2018-06-13T01:15:25.099Z,85.48
2018-06-13T01:17:54.605Z,85.75
2018-06-13T01:20:23.791Z,85.56
2018-06-13T01:22:53.267Z,85.46
2018-06-13T01:25:23.079Z,85.27
2018-06-13T01:27:52.259Z,85.54
2018-06-13T01:30:22.030Z,84.91
2018-06-13T01:32:51.203Z,84.83
2018-06-13T01:35:20.427Z,85.07
2018-06-13T01:37:49.651Z,85.06
2018-06-13T01:40:19.568Z,85.11
2018-06-13T01:42:48.730Z,85.23
2018-06-13T01:45:17.942Z,85.34
2018-06-13T01:47:47.478Z,85.41
2018-06-13T01:50:16.710Z,85.58
2018-06-13T01:52:46.654Z,85.12
2018-06-13T01:55:15.850Z,85.11
2018-06-13T01:57:45.263Z,85.07
2018-06-13T02:00:14.800Z,85.15
2018-06-13T02:02:44.210Z,84.75
2018-06-13T02:05:16.026Z,84.60
2018-06-13T02:07:45.610Z,84.54
2018-06-13T02:10:14.855Z,84.23
2018-06-13T02:12:44.048Z,84.29
2018-06-13T02:15:13.282Z,84.48
2018-06-13T02:17:42.460Z,84.48
2018-06-13T02:20:11.894Z,84.32
2018-06-13T02:22:41.263Z,84.35
2018-06-13T02:25:10.815Z,83.99
2018-06-13T02:27:40.613Z,84.11
2018-06-13T02:30:09.795Z,83.12
2018-06-13T02:32:41.843Z,83.75
2018-06-13T02:35:11.399Z,83.61
2018-06-13T02:37:40.931Z,83.18
2018-06-13T02:40:10.496Z,83.54
2018-06-13T02:42:39.667Z,83.81
2018-06-13T02:45:08.875Z,83.80
2018-06-13T02:47:38.796Z,82.50
2018-06-13T02:50:07.995Z,82.45
2018-06-13T02:52:37.181Z,81.98
2018-06-13T02:55:06.818Z,82.12
2018-06-13T02:57:36.330Z,81.92
2018-06-13T03:00:06.497Z,81.48
2018-06-13T03:02:35.663Z,82.19
2018-06-13T03:05:04.884Z,81.49
2018-06-13T03:07:34.442Z,82.04
2018-06-13T03:10:03.808Z,82.16
2018-06-13T03:12:33.088Z,81.69
2018-06-13T03:15:03.019Z,81.36
2018-06-13T03:17:32.209Z,81.27
2018-06-13T03:20:01.435Z,81.29
2018-06-13T03:22:30.634Z,80.90
2018-06-13T03:24:59.968Z,79.82
2018-06-13T03:27:29.353Z,80.10
2018-06-13T03:29:59.117Z,80.47
2018-06-13T03:32:28.446Z,80.33
2018-06-13T03:34:57.656Z,80.64
2018-06-13T03:37:26.820Z,80.85
2018-06-13T03:39:56.240Z,80.65
2018-06-13T03:42:25.480Z,80.39
2018-06-13T03:44:54.814Z,79.97
2018-06-13T03:47:23.990Z,79.31
2018-06-13T03:49:53.196Z,80.20
2018-06-13T03:52:22.465Z,79.39
2018-06-13T03:54:51.891Z,79.15
2018-06-13T03:57:21.452Z,78.96
2018-06-13T03:59:50.887Z,79.33
2018-06-13T04:02:20.465Z,79.46
2018-06-13T04:04:50.027Z,79.61
2018-06-13T04:07:19.277Z,79.59
2018-06-13T04:09:48.498Z,80.19
2018-06-13T04:12:17.994Z,80.09
2018-06-13T04:14:47.595Z,80.21
2018-06-13T04:17:16.806Z,79.93
2018-06-13T04:19:46.039Z,80.81
2018-06-13T04:22:15.531Z,80.11
2018-06-13T04:24:44.762Z,80.39
2018-06-13T04:27:13.954Z,79.75
2018-06-13T04:29:43.587Z,79.44
2018-06-13T04:32:12.788Z,78.69
2018-06-13T04:34:42.005Z,77.90
2018-06-13T04:37:12.371Z,78.46
2018-06-13T04:39:41.594Z,78.08
2018-06-13T04:42:11.091Z,77.63
2018-06-13T04:44:40.346Z,77.96
2018-06-13T04:47:09.551Z,77.93
2018-06-13T04:49:38.790Z,77.58
2018-06-13T04:52:07.955Z,77.44
2018-06-13T04:54:37.175Z,77.77
2018-06-13T04:57:06.402Z,78.23
2018-06-13T04:59:35.585Z,78.22
2018-06-13T05:02:05.118Z,77.46
2018-06-13T05:04:34.346Z,77.93
2018-06-13T05:07:03.590Z,78.22
2018-06-13T05:09:32.823Z,79.03
2018-06-13T05:12:02.108Z,77.68
2018-06-13T05:14:31.288Z,76.84
2018-06-13T05:17:00.527Z,77.17
2018-06-13T05:19:29.699Z,76.49
2018-06-13T05:21:58.923Z,76.38
2018-06-13T05:24:28.102Z,75.85
2018-06-13T05:26:58.326Z,76.42
2018-06-13T05:29:27.538Z,76.55
2018-06-13T05:31:57.090Z,76.00
2018-06-13T05:34:26.427Z,76.35
2018-06-13T05:36:55.648Z,77.03
2018-06-13T05:39:24.829Z,76.41
2018-06-13T05:41:54.129Z,75.77
2018-06-13T05:44:23.298Z,75.42
2018-06-13T05:46:53.210Z,75.09
2018-06-13T05:49:22.395Z,75.34
2018-06-13T05:51:51.611Z,74.54
2018-06-13T05:54:21.065Z,74.67
2018-06-13T05:56:50.291Z,74.33
2018-06-13T05:59:19.459Z,74.59
2018-06-13T06:01:48.663Z,75.56
2018-06-13T06:04:17.831Z,74.84
2018-06-13T06:06:47.268Z,74.03
2018-06-13T06:09:16.646Z,74.16
2018-06-13T06:11:46.095Z,75.32
2018-06-13T06:14:15.411Z,75.16
2018-06-13T06:16:45.422Z,74.34
2018-06-13T06:19:14.641Z,74.76
2018-06-13T06:21:44.316Z,75.12
2018-06-13T06:24:13.510Z,74.90
2018-06-13T06:26:43.052Z,75.82
2018-06-13T06:29:12.243Z,75.57
2018-06-13T06:31:41.442Z,75.39
2018-06-13T06:34:10.644Z,75.02
2018-06-13T06:36:40.052Z,74.49
2018-06-13T06:39:09.614Z,74.47
2018-06-13T06:41:38.951Z,72.94
2018-06-13T06:44:08.135Z,72.25
2018-06-13T06:46:37.646Z,72.77
2018-06-13T06:49:06.947Z,72.34
2018-06-13T06:51:36.158Z,72.05
2018-06-13T06:54:05.378Z,70.15
2018-06-13T06:56:34.783Z,69.91
2018-06-13T06:59:03.976Z,68.42
2018-06-13T07:01:33.213Z,68.17
2018-06-13T07:04:02.396Z,67.34
2018-06-13T07:06:31.978Z,66.89
2018-06-13T07:09:01.155Z,65.98
2018-06-13T07:11:30.474Z,66.47
2018-06-13T07:13:59.675Z,64.62
2018-06-13T07:16:28.898Z,64.89
2018-06-13T07:18:58.129Z,64.24
2018-06-13T07:21:27.417Z,63.00
2018-06-13T07:23:56.594Z,64.31
2018-06-13T07:26:25.798Z,63.51
2018-06-13T07:28:55.127Z,64.68
2018-06-13T07:31:24.334Z,64.55
2018-06-13T07:33:53.947Z,66.22
2018-06-13T07:36:23.311Z,67.08
2018-06-13T07:38:52.635Z,67.32
2018-06-13T07:41:21.852Z,66.47
2018-06-13T07:43:51.131Z,63.21
2018-06-13T07:46:20.447Z,62.19
2018-06-13T07:48:49.851Z,59.76
2018-06-13T07:51:19.492Z,57.13
2018-06-13T07:53:48.663Z,58.44
2018-06-13T07:56:17.867Z,60.44
2018-06-13T07:58:47.054Z,60.99
2018-06-13T08:01:16.257Z,61.81
2018-06-13T08:03:45.638Z,60.76
2018-06-13T08:06:14.843Z,63.42
2018-06-13T08:08:44.143Z,64.46
2018-06-13T08:11:13.663Z,63.07
2018-06-13T08:13:43.187Z,63.14
2018-06-13T08:16:12.691Z,61.22
2018-06-13T08:18:41.909Z,61.99
2018-06-13T08:21:11.087Z,61.49
2018-06-13T08:23:40.275Z,59.13
2018-06-13T08:26:09.639Z,60.30
2018-06-13T08:28:39.546Z,60.17
2018-06-13T08:31:08.725Z,60.51
2018-06-13T08:33:37.937Z,60.52
2018-06-13T08:36:07.274Z,61.07
2018-06-13T08:38:36.575Z,60.44
2018-06-13T08:41:05.770Z,58.37
2018-06-13T08:43:34.962Z,56.47
2018-06-13T08:46:04.302Z,56.09
2018-06-13T08:48:34.218Z,55.67
2018-06-13T08:51:03.347Z,53.31
2018-06-13T08:53:32.567Z,52.71
2018-06-13T08:56:01.757Z,52.82
2018-06-13T08:58:30.963Z,50.67
2018-06-13T09:01:00.166Z,50.96
2018-06-13T09:03:29.362Z,51.07
2018-06-13T09:05:58.558Z,49.96
2018-06-13T09:08:29.051Z,51.33
2018-06-13T09:10:58.231Z,51.12
2018-06-13T09:13:27.487Z,52.11
2018-06-13T09:15:56.623Z,52.92
2018-06-13T09:18:26.291Z,55.00
2018-06-13T09:20:55.678Z,54.37
2018-06-13T09:23:25.608Z,55.19
2018-06-13T09:25:54.795Z,54.43
2018-06-13T09:28:24.315Z,53.89
2018-06-13T09:30:54.127Z,54.14
2018-06-13T09:33:23.327Z,53.92
2018-06-13T09:35:52.799Z,52.99
2018-06-13T09:38:22.731Z,52.67
2018-06-13T09:40:51.930Z,53.91
2018-06-13T09:43:21.295Z,53.48
2018-06-13T09:45:50.591Z,54.34
2018-06-13T09:48:19.778Z,54.26
2018-06-13T09:50:49.262Z,54.17
2018-06-13T09:53:18.790Z,54.97
2018-06-13T09:55:47.992Z,55.56
2018-06-13T09:58:17.178Z,55.29
2018-06-13T10:00:51.535Z,54.11
2018-06-13T10:03:20.739Z,54.30
2018-06-13T10:05:49.930Z,54.53
2018-06-13T10:08:19.426Z,54.02
2018-06-13T10:10:48.775Z,55.54
2018-06-13T10:13:17.974Z,55.21
2018-06-13T10:15:47.143Z,56.51
2018-06-13T10:18:17.178Z,56.03
2018-06-13T10:20:46.350Z,57.50
2018-06-13T10:23:15.555Z,56.62
2018-06-13T10:25:44.863Z,57.17
2018-06-13T10:28:14.066Z,56.14
2018-06-13T10:30:43.770Z,57.98
2018-06-13T10:33:12.983Z,56.84
2018-06-13T10:35:42.170Z,56.37
2018-06-13T10:38:11.467Z,55.50
2018-06-13T10:40:40.939Z,53.11
2018-06-13T10:43:10.533Z,50.35
2018-06-13T10:45:40.078Z,47.58
2018-06-13T10:48:09.275Z,46.25
2018-06-13T10:50:38.435Z,46.52
2018-06-13T10:53:07.832Z,45.53
2018-06-13T10:55:37.804Z,43.82
2018-06-13T10:58:06.951Z,46.94
2018-06-13T11:00:36.463Z,45.77
2018-06-13T11:03:05.817Z,47.05
2018-06-13T11:05:34.984Z,45.15
2018-06-13T11:08:04.315Z,45.58
2018-06-13T11:10:33.500Z,46.61
2018-06-13T11:13:02.731Z,50.04
2018-06-13T11:15:31.886Z,49.59
2018-06-13T11:18:01.089Z,49.42
2018-06-13T11:20:30.656Z,51.00
2018-06-13T11:23:00.023Z,53.69
2018-06-13T11:25:29.192Z,56.26
2018-06-13T11:27:58.391Z,56.66
2018-06-13T11:30:27.555Z,58.43
2018-06-13T11:32:56.981Z,59.20
2018-06-13T11:35:26.148Z,59.36
2018-06-13T11:37:55.362Z,60.95
2018-06-13T11:40:24.800Z,60.98
2018-06-13T11:42:54.016Z,60.97
2018-06-13T11:45:23.556Z,59.05
2018-06-13T11:47:52.786Z,57.13
2018-06-13T11:50:21.967Z,58.02
2018-06-13T11:52:51.187Z,56.82
2018-06-13T11:55:20.470Z,58.06
2018-06-13T11:57:51.320Z,57.77
2018-06-13T12:00:20.576Z,58.05
2018-06-13T12:02:50.018Z,57.94
2018-06-13T12:05:19.227Z,58.69
2018-06-13T12:07:48.443Z,58.34
2018-06-13T12:10:17.615Z,60.14
2018-06-13T12:12:47.231Z,57.09
2018-06-13T12:15:16.435Z,57.79
2018-06-13T12:17:45.605Z,58.03
2018-06-13T12:20:14.798Z,57.53
2018-06-13T12:22:43.998Z,56.66
2018-06-13T12:25:13.216Z,54.91
2018-06-13T12:27:42.418Z,54.07
2018-06-13T12:30:11.623Z,54.04
2018-06-13T12:32:40.791Z,55.28
2018-06-13T12:35:10.007Z,54.31
2018-06-13T12:37:39.415Z,54.79
2018-06-13T12:40:08.647Z,54.26
2018-06-13T12:42:37.799Z,56.30
2018-06-13T12:45:07.204Z,55.61
2018-06-13T12:47:36.373Z,55.43
2018-06-13T12:50:06.211Z,54.94
2018-06-13T12:52:35.391Z,53.19
2018-06-13T12:55:05.019Z,52.91
2018-06-13T12:57:34.199Z,53.41
2018-06-13T13:00:03.571Z,51.18
2018-06-13T13:02:32.751Z,50.81
2018-06-13T13:05:01.968Z,52.20
2018-06-13T13:07:31.526Z,50.65
2018-06-13T13:10:00.707Z,52.88
2018-06-13T13:12:30.258Z,53.23
2018-06-13T13:14:59.463Z,53.87
2018-06-13T13:17:28.646Z,54.35
2018-06-13T13:19:57.847Z,55.22
2018-06-13T13:22:27.435Z,54.53
2018-06-13T13:24:56.644Z,57.08
2018-06-13T13:27:25.813Z,58.36
2018-06-13T13:29:55.023Z,59.69
2018-06-13T13:32:24.202Z,61.97
2018-06-13T13:34:53.871Z,63.03
2018-06-13T13:37:23.058Z,64.10
2018-06-13T13:39:52.278Z,64.93
2018-06-13T13:42:21.483Z,64.47
2018-06-13T13:44:50.675Z,65.39
2018-06-13T13:47:19.869Z,64.49
2018-06-13T13:49:49.295Z,63.75
2018-06-13T13:52:18.496Z,63.35
2018-06-13T13:54:48.523Z,62.66
2018-06-13T13:57:17.743Z,61.46
2018-06-13T13:59:46.955Z,60.19
2018-06-13T14:02:16.308Z,60.77
2018-06-13T14:04:45.518Z,59.94
2018-06-13T14:07:15.057Z,58.40
2018-06-13T14:09:44.255Z,56.67
2018-06-13T14:12:13.669Z,56.02
2018-06-13T14:14:42.949Z,56.98
2018-06-13T14:17:12.119Z,56.94
2018-06-13T14:19:41.571Z,58.13
2018-06-13T14:22:10.747Z,57.96
2018-06-13T14:24:39.945Z,55.06
2018-06-13T14:27:09.147Z,55.13
2018-06-13T14:29:38.621Z,54.56
2018-06-13T14:32:07.940Z,55.00
2018-06-13T14:34:37.159Z,57.17
2018-06-13T14:37:06.368Z,57.60
2018-06-13T14:39:36.083Z,59.75
2018-06-13T14:42:05.587Z,61.93
2018-06-13T14:44:34.787Z,60.45
2018-06-13T14:47:04.099Z,60.39
2018-06-13T14:49:33.384Z,60.08
2018-06-13T14:52:02.604Z,60.29
2018-06-13T14:54:32.011Z,60.23
2018-06-13T14:57:01.199Z,60.85
2018-06-13T14:59:30.548Z,60.83
2018-06-13T15:01:59.784Z,60.73
2018-06-13T15:04:34.303Z,60.80
2018-06-13T15:07:05.742Z,61.71
2018-06-13T15:09:35.567Z,62.05
2018-06-13T15:12:05.158Z,60.22
2018-06-13T15:14:34.392Z,61.00
2018-06-13T15:17:04.042Z,60.32
2018-06-13T15:19:33.862Z,58.55
2018-06-13T15:22:03.750Z,59.25
2018-06-13T15:24:33.402Z,58.54
2018-06-13T15:27:02.699Z,57.20
2018-06-13T15:29:32.538Z,55.47
2018-06-13T15:32:01.890Z,54.24
2018-06-13T15:34:31.083Z,54.28
2018-06-13T15:37:00.263Z,50.69
2018-06-13T15:39:29.472Z,52.02
2018-06-13T15:41:58.847Z,50.97
2018-06-13T15:44:28.103Z,51.35
2018-06-13T15:46:57.289Z,53.96
2018-06-13T15:49:26.472Z,53.45
2018-06-13T15:51:55.875Z,52.63
2018-06-13T15:54:25.139Z,53.23
2018-06-13T15:56:54.310Z,52.85
2018-06-13T15:59:23.502Z,52.61
2018-06-13T16:01:53.095Z,52.68
2018-06-13T16:04:22.318Z,53.54
2018-06-13T16:06:51.532Z,52.53
2018-06-13T16:09:20.691Z,53.00
2018-06-13T16:11:49.903Z,55.08
2018-06-13T16:14:19.975Z,55.58
2018-06-13T16:16:49.463Z,52.92
2018-06-13T16:19:18.599Z,52.68
2018-06-13T16:21:48.490Z,51.68
2018-06-13T16:24:17.682Z,52.49
2018-06-13T16:26:47.305Z,53.61
2018-06-13T16:29:16.476Z,54.61
2018-06-13T16:31:45.911Z,55.29
2018-06-13T16:34:15.248Z,56.13
2018-06-13T16:36:44.491Z,54.76
2018-06-13T16:39:14.102Z,54.68
2018-06-13T16:41:43.734Z,55.07
2018-06-13T16:44:13.027Z,57.09
2018-06-13T16:46:42.446Z,56.27
2018-06-13T16:49:11.958Z,56.51
2018-06-13T16:51:57.701Z,56.23
2018-06-13T16:54:38.048Z,57.41
2018-06-13T16:57:09.716Z,57.08
2018-06-13T16:59:38.935Z,58.39
2018-06-13T17:02:08.145Z,58.09
2018-06-13T17:04:37.298Z,57.83
2018-06-13T17:07:06.794Z,57.53
2018-06-13T17:09:35.983Z,56.73
2018-06-13T17:12:05.194Z,57.49
2018-06-13T17:14:34.367Z,56.18
2018-06-13T17:17:03.565Z,56.15
2018-06-13T17:19:32.970Z,56.61
2018-06-13T17:22:03.324Z,57.21
2018-06-13T17:24:33.483Z,55.82
2018-06-13T17:27:02.780Z,57.48
2018-06-13T17:29:31.972Z,58.24
2018-06-13T17:32:01.176Z,56.19
2018-06-13T17:34:30.382Z,57.53
2018-06-13T17:36:59.854Z,57.46
2018-06-13T17:39:29.110Z,57.81
2018-06-13T17:41:58.299Z,58.20
2018-06-13T17:44:28.242Z,57.73
2018-06-13T17:46:57.642Z,58.25
2018-06-13T17:49:27.496Z,58.22
2018-06-13T17:53:26.139Z,58.56
2018-06-13T17:55:55.343Z,60.55
2018-06-13T17:58:24.798Z,59.86
2018-06-13T18:00:54.413Z,59.98
2018-06-13T18:03:23.827Z,59.46
2018-06-13T18:05:53.132Z,60.19
2018-06-13T18:08:22.527Z,61.89
2018-06-13T18:10:52.933Z,61.60
2018-06-13T18:13:22.534Z,62.37
2018-06-13T18:15:51.865Z,61.93
2018-06-13T18:18:21.351Z,62.23
2018-06-13T18:20:50.898Z,63.26
2018-06-13T18:23:20.166Z,62.70
2018-06-13T18:25:49.402Z,63.70
2018-06-13T18:28:18.603Z,64.13
2018-06-13T18:30:48.174Z,65.44
2018-06-13T18:33:17.407Z,65.40
2018-06-13T18:35:46.969Z,66.71
2018-06-13T18:38:16.183Z,66.56
2018-06-13T18:40:45.379Z,66.80
2018-06-13T18:43:14.610Z,66.49
2018-06-13T18:45:44.282Z,66.76
2018-06-13T18:48:13.889Z,67.85
2018-06-13T18:50:43.191Z,67.62
2018-06-13T18:53:13.412Z,67.17
2018-06-13T18:55:42.633Z,68.11
2018-06-13T18:58:12.236Z,68.53
2018-06-13T19:00:41.692Z,68.94
2018-06-13T19:03:10.890Z,68.84
2018-06-13T19:05:40.140Z,69.93
2018-06-13T19:08:09.364Z,70.05
2018-06-13T19:10:38.583Z,70.35
2018-06-13T19:13:08.362Z,71.60
2018-06-13T19:15:37.551Z,71.32
2018-06-13T19:18:07.651Z,71.76
2018-06-13T19:20:36.837Z,72.81
2018-06-13T19:23:05.772Z,72.78
2018-06-13T19:25:34.995Z,72.62
2018-06-13T19:28:04.490Z,73.92
2018-06-13T19:30:33.654Z,73.86
2018-06-13T19:33:02.839Z,73.73
2018-06-13T19:35:32.255Z,75.39
2018-06-13T19:38:01.455Z,75.41
2018-06-13T19:40:30.647Z,76.33
2018-06-13T19:42:59.945Z,76.87
2018-06-13T19:45:29.439Z,77.16
2018-06-13T19:48:04.310Z,76.39
2018-06-13T19:50:33.487Z,76.46
2018-06-13T19:53:08.047Z,76.92
2018-06-13T19:55:42.909Z,77.60
2018-06-13T19:58:12.121Z,78.35
2018-06-13T20:00:41.342Z,77.46
2018-06-13T20:03:15.835Z,77.42
2018-06-13T20:05:45.055Z,78.39
2018-06-13T20:08:14.254Z,78.41
2018-06-13T20:10:43.735Z,78.62
2018-06-13T20:13:18.122Z,78.86
2018-06-13T20:15:52.863Z,78.30
2018-06-13T20:18:27.355Z,77.82
2018-06-13T20:20:56.523Z,79.03
2018-06-13T20:23:25.886Z,79.75
2018-06-13T20:26:00.399Z,79.06
2018-06-13T20:28:35.167Z,78.76
2018-06-13T20:31:09.666Z,78.68
2018-06-13T20:33:38.867Z,79.33
2018-06-13T20:36:08.071Z,79.71
2018-06-13T20:38:37.762Z,79.62
2018-06-13T20:41:07.226Z,79.78
2018-06-13T20:43:36.455Z,80.40
2018-06-13T20:46:06.314Z,80.78
2018-06-13T20:48:35.507Z,80.69
2018-06-13T20:51:04.803Z,80.83
2018-06-13T20:53:34.660Z,81.16
2018-06-13T20:56:04.281Z,81.13
2018-06-13T20:58:33.503Z,81.66
2018-06-13T21:01:02.808Z,81.56
2018-06-13T21:03:31.987Z,81.91
2018-06-13T21:06:01.204Z,81.84
2018-06-13T21:08:30.371Z,81.24
2018-06-13T21:10:59.569Z,81.32
2018-06-13T21:13:28.734Z,81.64
2018-06-13T21:15:57.934Z,82.04
2018-06-13T21:18:27.259Z,81.97
2018-06-13T21:20:56.465Z,82.53
2018-06-13T21:23:25.630Z,83.61
2018-06-13T21:25:54.875Z,83.56
2018-06-13T21:28:24.247Z,83.42
2018-06-13T21:30:53.589Z,83.34
2018-06-13T21:33:22.763Z,83.57
2018-06-13T21:35:51.964Z,83.81
2018-06-13T21:38:21.130Z,84.11
2018-06-13T21:40:50.362Z,84.81
2018-06-13T21:43:19.867Z,84.25
2018-06-13T21:45:49.102Z,84.46
2018-06-13T21:48:18.711Z,84.39
2018-06-13T21:50:47.919Z,84.81
2018-06-13T21:53:17.263Z,85.10
2018-06-13T21:55:46.699Z,84.94
2018-06-13T21:58:15.878Z,84.88
2018-06-13T22:00:45.073Z,84.92
2018-06-13T22:03:14.231Z,84.80
2018-06-13T22:05:43.448Z,85.44
2018-06-13T22:08:13.167Z,85.56
2018-06-13T22:10:42.342Z,85.95
2018-06-13T22:13:11.515Z,86.34
2018-06-13T22:15:40.699Z,86.46
2018-06-13T22:18:09.862Z,85.98
2018-06-13T22:20:39.231Z,86.62
2018-06-13T22:23:08.423Z,86.44
2018-06-13T22:25:37.648Z,87.54
2018-06-13T22:28:06.839Z,87.15
2018-06-13T22:30:36.006Z,87.25
2018-06-13T22:33:05.198Z,87.13
2018-06-13T22:35:34.385Z,87.26
2018-06-13T22:38:03.554Z,87.76
2018-06-13T22:40:32.762Z,86.96
2018-06-13T22:43:02.020Z,88.36
2018-06-13T22:45:31.183Z,87.37
2018-06-13T22:48:00.364Z,86.34
2018-06-13T22:50:29.540Z,86.75
2018-06-13T22:52:58.818Z,86.43
2018-06-13T22:55:27.998Z,87.77
2018-06-13T22:57:57.266Z,88.08
2018-06-13T23:00:37.202Z,87.77
2018-06-13T23:03:06.312Z,87.72
2018-06-13T23:05:35.486Z,88.03
2018-06-13T23:08:04.726Z,88.35
2018-06-13T23:10:33.896Z,87.93
2018-06-13T23:13:03.563Z,88.22
2018-06-13T23:15:32.851Z,88.02
2018-06-13T23:18:02.067Z,88.35
2018-06-13T23:20:31.242Z,88.38
2018-06-13T23:23:00.511Z,87.14
2018-06-13T23:25:29.684Z,87.87
2018-06-13T23:27:59.059Z,88.76
2018-06-13T23:30:28.431Z,89.13
2018-06-13T23:32:57.660Z,88.78
2018-06-13T23:35:26.779Z,88.47
2018-06-13T23:37:56.450Z,87.99
2018-06-13T23:40:25.762Z,87.54
2018-06-13T23:42:55.415Z,88.09
2018-06-13T23:45:24.847Z,87.69
2018-06-13T23:47:54.014Z,88.52
2018-06-13T23:50:23.210Z,88.50
2018-06-13T23:52:52.357Z,87.75
2018-06-13T23:55:21.523Z,88.24
2018-06-13T23:57:50.705Z,89.18
